Shemah Yisrael!
Hear, O Israel: the LORD our God, the LORD is one.
You shall love the LORD your God with all your heart and with all your soul and with all your might.
(Deuteronomy 6:4-5)
Houston / Ellington, TX, United States (KEFD) 29-36N 095-10W
Sep 27, 2021 - 11:50 PM EDT / 2021.09.28 0350 UTC
Wind: from the SSE (150 degrees) at 7 MPH (6 KT):0
Visibility: 10 mile(s):0
Sky conditions: mostly clear
Temperature: 78 F (26 C)
Dew Point: 75 F (24 C)
Relative Humidity: 88%
Pressure (altimeter): 29.93 in. Hg (1013 hPa)
ob: KEFD 280350Z 15006KT 10SM FEW040 26/24 A2993 
cycle: 4
w e b m a s t e r   a t   s h e m a h   d o t   n e t